sensor_id;sensor_type;location;lat;lon;timestamp;P1;durP1;ratioP1;P2;durP2;ratioP2
30173;SDS011;16985;50.814;8.530;2024-01-06T00:02:05;13.23;;;3.55;;
30173;SDS011;16985;50.814;8.530;2024-01-06T00:04:37;11.27;;;3.58;;
30173;SDS011;16985;50.814;8.530;2024-01-06T00:07:06;5.28;;;3.22;;
30173;SDS011;16985;50.814;8.530;2024-01-06T00:09:32;10.57;;;2.80;;
30173;SDS011;16985;50.814;8.530;2024-01-06T00:12:00;10.85;;;3.15;;
30173;SDS011;16985;50.814;8.530;2024-01-06T00:14:27;6.15;;;3.00;;
30173;SDS011;16985;50.814;8.530;2024-01-06T00:16:56;6.65;;;3.17;;
30173;SDS011;16985;50.814;8.530;2024-01-06T00:19:24;5.35;;;3.05;;
30173;SDS011;16985;50.814;8.530;2024-01-06T00:21:52;6.35;;;4.15;;
30173;SDS011;16985;50.814;8.530;2024-01-06T00:24:20;4.75;;;2.92;;
30173;SDS011;16985;50.814;8.530;2024-01-06T00:26:46;6.63;;;3.58;;
30173;SDS011;16985;50.814;8.530;2024-01-06T00:29:12;9.35;;;3.13;;
30173;SDS011;16985;50.814;8.530;2024-01-06T00:31:38;7.30;;;3.10;;
30173;SDS011;16985;50.814;8.530;2024-01-06T00:34:03;11.55;;;3.10;;
30173;SDS011;16985;50.814;8.530;2024-01-06T00:36:29;7.90;;;2.67;;
30173;SDS011;16985;50.814;8.530;2024-01-06T00:38:55;6.75;;;2.97;;
30173;SDS011;16985;50.814;8.530;2024-01-06T00:41:21;11.88;;;3.10;;
30173;SDS011;16985;50.814;8.530;2024-01-06T00:43:46;8.13;;;2.83;;
30173;SDS011;16985;50.814;8.530;2024-01-06T00:46:12;6.10;;;4.13;;
30173;SDS011;16985;50.814;8.530;2024-01-06T00:48:38;10.52;;;3.13;;
30173;SDS011;16985;50.814;8.530;2024-01-06T00:51:04;4.97;;;3.00;;
30173;SDS011;16985;50.814;8.530;2024-01-06T00:53:31;3.63;;;2.40;;
30173;SDS011;16985;50.814;8.530;2024-01-06T00:55:56;6.50;;;2.72;;
30173;SDS011;16985;50.814;8.530;2024-01-06T00:58:22;8.73;;;2.70;;
30173;SDS011;16985;50.814;8.530;2024-01-06T01:00:48;6.65;;;2.50;;
30173;SDS011;16985;50.814;8.530;2024-01-06T01:03:14;7.20;;;2.50;;
30173;SDS011;16985;50.814;8.530;2024-01-06T01:05:40;9.13;;;2.70;;
30173;SDS011;16985;50.814;8.530;2024-01-06T01:08:06;8.27;;;2.80;;
30173;SDS011;16985;50.814;8.530;2024-01-06T01:10:32;3.80;;;2.17;;
30173;SDS011;16985;50.814;8.530;2024-01-06T01:12:58;5.70;;;2.30;;
30173;SDS011;16985;50.814;8.530;2024-01-06T01:15:23;11.43;;;3.78;;
30173;SDS011;16985;50.814;8.530;2024-01-06T01:17:49;7.57;;;2.50;;
30173;SDS011;16985;50.814;8.530;2024-01-06T01:20:15;8.15;;;2.72;;
30173;SDS011;16985;50.814;8.530;2024-01-06T01:22:41;4.07;;;2.45;;
30173;SDS011;16985;50.814;8.530;2024-01-06T01:25:07;8.25;;;3.20;;
30173;SDS011;16985;50.814;8.530;2024-01-06T01:27:33;3.47;;;2.17;;
30173;SDS011;16985;50.814;8.530;2024-01-06T01:29:59;7.20;;;2.85;;
30173;SDS011;16985;50.814;8.530;2024-01-06T01:32:25;4.05;;;2.17;;
30173;SDS011;16985;50.814;8.530;2024-01-06T01:34:51;7.60;;;2.75;;
30173;SDS011;16985;50.814;8.530;2024-01-06T01:37:17;9.68;;;3.40;;
30173;SDS011;16985;50.814;8.530;2024-01-06T01:39:43;6.57;;;2.35;;
30173;SDS011;16985;50.814;8.530;2024-01-06T01:42:09;8.82;;;2.58;;
30173;SDS011;16985;50.814;8.530;2024-01-06T01:44:34;6.63;;;2.92;;
30173;SDS011;16985;50.814;8.530;2024-01-06T01:47:00;3.30;;;2.70;;
30173;SDS011;16985;50.814;8.530;2024-01-06T01:49:29;4.50;;;2.55;;
30173;SDS011;16985;50.814;8.530;2024-01-06T01:51:55;4.50;;;2.58;;
30173;SDS011;16985;50.814;8.530;2024-01-06T01:54:21;4.68;;;2.63;;
30173;SDS011;16985;50.814;8.530;2024-01-06T01:56:47;4.63;;;2.50;;
30173;SDS011;16985;50.814;8.530;2024-01-06T01:59:13;8.18;;;3.20;;
30173;SDS011;16985;50.814;8.530;2024-01-06T02:01:42;7.13;;;2.35;;
30173;SDS011;16985;50.814;8.530;2024-01-06T02:04:09;8.68;;;2.50;;
30173;SDS011;16985;50.814;8.530;2024-01-06T02:06:35;7.00;;;2.88;;
30173;SDS011;16985;50.814;8.530;2024-01-06T02:09:01;5.43;;;2.40;;
30173;SDS011;16985;50.814;8.530;2024-01-06T02:11:27;9.45;;;2.78;;
30173;SDS011;16985;50.814;8.530;2024-01-06T02:13:52;4.97;;;2.97;;
30173;SDS011;16985;50.814;8.530;2024-01-06T02:16:18;5.13;;;2.60;;
30173;SDS011;16985;50.814;8.530;2024-01-06T02:18:44;5.38;;;3.15;;
30173;SDS011;16985;50.814;8.530;2024-01-06T02:21:10;11.52;;;3.85;;
30173;SDS011;16985;50.814;8.530;2024-01-06T02:23:36;6.18;;;3.33;;
30173;SDS011;16985;50.814;8.530;2024-01-06T02:26:02;6.70;;;3.47;;
30173;SDS011;16985;50.814;8.530;2024-01-06T02:28:28;4.68;;;3.20;;
30173;SDS011;16985;50.814;8.530;2024-01-06T02:30:54;10.80;;;4.15;;
30173;SDS011;16985;50.814;8.530;2024-01-06T02:33:20;11.73;;;3.85;;
30173;SDS011;16985;50.814;8.530;2024-01-06T02:35:48;9.70;;;4.07;;
30173;SDS011;16985;50.814;8.530;2024-01-06T02:38:14;8.30;;;4.15;;
30173;SDS011;16985;50.814;8.530;2024-01-06T02:40:40;7.30;;;4.07;;
30173;SDS011;16985;50.814;8.530;2024-01-06T02:43:06;11.93;;;4.60;;
30173;SDS011;16985;50.814;8.530;2024-01-06T02:45:31;13.95;;;4.53;;
30173;SDS011;16985;50.814;8.530;2024-01-06T02:47:57;14.18;;;5.35;;
30173;SDS011;16985;50.814;8.530;2024-01-06T02:50:23;14.65;;;5.30;;
30173;SDS011;16985;50.814;8.530;2024-01-06T02:52:49;11.35;;;5.03;;
30173;SDS011;16985;50.814;8.530;2024-01-06T02:55:14;10.40;;;4.57;;
30173;SDS011;16985;50.814;8.530;2024-01-06T02:57:40;13.18;;;3.50;;
30173;SDS011;16985;50.814;8.530;2024-01-06T03:00:07;10.10;;;4.57;;
30173;SDS011;16985;50.814;8.530;2024-01-06T03:02:33;5.50;;;3.85;;
30173;SDS011;16985;50.814;8.530;2024-01-06T03:05:01;6.65;;;4.18;;
30173;SDS011;16985;50.814;8.530;2024-01-06T03:07:27;13.45;;;4.53;;
30173;SDS011;16985;50.814;8.530;2024-01-06T03:09:53;11.70;;;3.85;;
30173;SDS011;16985;50.814;8.530;2024-01-06T03:12:19;4.85;;;3.63;;
30173;SDS011;16985;50.814;8.530;2024-01-06T03:14:45;14.02;;;3.80;;
30173;SDS011;16985;50.814;8.530;2024-01-06T03:17:10;12.10;;;3.78;;
30173;SDS011;16985;50.814;8.530;2024-01-06T03:19:36;7.78;;;3.60;;
30173;SDS011;16985;50.814;8.530;2024-01-06T03:22:02;9.32;;;3.05;;
30173;SDS011;16985;50.814;8.530;2024-01-06T03:24:28;6.47;;;3.13;;
30173;SDS011;16985;50.814;8.530;2024-01-06T03:26:55;5.32;;;2.60;;
30173;SDS011;16985;50.814;8.530;2024-01-06T03:29:21;6.22;;;2.88;;
30173;SDS011;16985;50.814;8.530;2024-01-06T03:31:47;5.28;;;3.30;;
30173;SDS011;16985;50.814;8.530;2024-01-06T03:34:13;3.72;;;2.72;;
30173;SDS011;16985;50.814;8.530;2024-01-06T03:36:39;5.32;;;2.90;;
30173;SDS011;16985;50.814;8.530;2024-01-06T03:39:05;5.43;;;2.90;;
30173;SDS011;16985;50.814;8.530;2024-01-06T03:41:32;5.28;;;3.17;;
30173;SDS011;16985;50.814;8.530;2024-01-06T03:43:58;5.88;;;3.53;;
30173;SDS011;16985;50.814;8.530;2024-01-06T03:46:24;6.22;;;2.95;;
30173;SDS011;16985;50.814;8.530;2024-01-06T03:48:50;8.55;;;2.80;;
30173;SDS011;16985;50.814;8.530;2024-01-06T03:51:16;7.57;;;2.60;;
30173;SDS011;16985;50.814;8.530;2024-01-06T03:53:42;7.15;;;3.15;;
30173;SDS011;16985;50.814;8.530;2024-01-06T03:56:08;7.60;;;3.10;;
30173;SDS011;16985;50.814;8.530;2024-01-06T03:58:34;7.28;;;2.85;;
30173;SDS011;16985;50.814;8.530;2024-01-06T04:01:00;8.07;;;2.95;;
30173;SDS011;16985;50.814;8.530;2024-01-06T04:03:26;9.68;;;3.30;;
30173;SDS011;16985;50.814;8.530;2024-01-06T04:05:52;7.95;;;3.03;;
30173;SDS011;16985;50.814;8.530;2024-01-06T04:08:18;6.82;;;2.83;;
30173;SDS011;16985;50.814;8.530;2024-01-06T04:10:44;8.48;;;2.70;;
30173;SDS011;16985;50.814;8.530;2024-01-06T04:13:10;3.92;;;2.50;;
30173;SDS011;16985;50.814;8.530;2024-01-06T04:15:37;3.83;;;2.75;;
30173;SDS011;16985;50.814;8.530;2024-01-06T04:18:03;4.38;;;2.88;;
30173;SDS011;16985;50.814;8.530;2024-01-06T04:20:30;6.53;;;2.65;;
30173;SDS011;16985;50.814;8.530;2024-01-06T04:22:57;8.45;;;3.35;;
30173;SDS011;16985;50.814;8.530;2024-01-06T04:25:23;5.45;;;2.83;;
30173;SDS011;16985;50.814;8.530;2024-01-06T04:27:49;6.35;;;2.70;;
30173;SDS011;16985;50.814;8.530;2024-01-06T04:30:15;7.55;;;2.65;;
30173;SDS011;16985;50.814;8.530;2024-01-06T04:32:42;7.13;;;2.90;;
30173;SDS011;16985;50.814;8.530;2024-01-06T04:35:09;6.55;;;2.78;;
30173;SDS011;16985;50.814;8.530;2024-01-06T04:37:35;6.78;;;3.13;;
30173;SDS011;16985;50.814;8.530;2024-01-06T04:40:01;4.05;;;2.35;;
30173;SDS011;16985;50.814;8.530;2024-01-06T04:42:28;5.72;;;2.70;;
30173;SDS011;16985;50.814;8.530;2024-01-06T04:44:54;5.90;;;2.65;;
30173;SDS011;16985;50.814;8.530;2024-01-06T04:47:20;5.68;;;2.80;;
30173;SDS011;16985;50.814;8.530;2024-01-06T04:49:46;6.15;;;2.50;;
30173;SDS011;16985;50.814;8.530;2024-01-06T04:52:12;5.13;;;2.67;;
30173;SDS011;16985;50.814;8.530;2024-01-06T04:54:38;9.57;;;2.63;;
30173;SDS011;16985;50.814;8.530;2024-01-06T04:57:03;8.20;;;2.80;;
30173;SDS011;16985;50.814;8.530;2024-01-06T04:59:29;10.25;;;3.78;;
30173;SDS011;16985;50.814;8.530;2024-01-06T05:01:56;9.10;;;3.00;;
30173;SDS011;16985;50.814;8.530;2024-01-06T05:04:23;9.83;;;2.77;;
30173;SDS011;16985;50.814;8.530;2024-01-06T05:06:50;7.93;;;2.97;;
30173;SDS011;16985;50.814;8.530;2024-01-06T05:09:17;3.45;;;2.45;;
30173;SDS011;16985;50.814;8.530;2024-01-06T05:11:43;9.75;;;3.28;;
30173;SDS011;16985;50.814;8.530;2024-01-06T05:14:09;5.22;;;2.80;;
30173;SDS011;16985;50.814;8.530;2024-01-06T05:16:35;3.92;;;2.70;;
30173;SDS011;16985;50.814;8.530;2024-01-06T05:19:01;5.50;;;2.60;;
30173;SDS011;16985;50.814;8.530;2024-01-06T05:21:28;8.27;;;3.08;;
30173;SDS011;16985;50.814;8.530;2024-01-06T05:23:54;11.02;;;2.80;;
30173;SDS011;16985;50.814;8.530;2024-01-06T05:26:20;8.85;;;3.58;;
30173;SDS011;16985;50.814;8.530;2024-01-06T05:28:46;6.63;;;2.50;;
30173;SDS011;16985;50.814;8.530;2024-01-06T05:31:12;8.88;;;3.03;;
30173;SDS011;16985;50.814;8.530;2024-01-06T05:33:37;4.43;;;2.63;;
30173;SDS011;16985;50.814;8.530;2024-01-06T05:36:03;5.50;;;2.60;;
30173;SDS011;16985;50.814;8.530;2024-01-06T05:38:29;10.30;;;3.15;;
30173;SDS011;16985;50.814;8.530;2024-01-06T05:40:55;8.60;;;3.08;;
30173;SDS011;16985;50.814;8.530;2024-01-06T05:43:21;5.05;;;2.75;;
30173;SDS011;16985;50.814;8.530;2024-01-06T05:45:47;5.10;;;2.65;;
30173;SDS011;16985;50.814;8.530;2024-01-06T05:48:13;5.63;;;2.80;;
30173;SDS011;16985;50.814;8.530;2024-01-06T05:50:38;3.58;;;2.22;;
30173;SDS011;16985;50.814;8.530;2024-01-06T05:53:05;8.77;;;3.00;;
30173;SDS011;16985;50.814;8.530;2024-01-06T05:55:31;5.30;;;2.75;;
30173;SDS011;16985;50.814;8.530;2024-01-06T05:57:57;6.68;;;2.50;;
30173;SDS011;16985;50.814;8.530;2024-01-06T06:00:23;6.75;;;2.85;;
30173;SDS011;16985;50.814;8.530;2024-01-06T06:02:49;11.95;;;2.97;;
30173;SDS011;16985;50.814;8.530;2024-01-06T06:05:15;4.18;;;2.58;;
30173;SDS011;16985;50.814;8.530;2024-01-06T06:07:42;4.28;;;3.17;;
30173;SDS011;16985;50.814;8.530;2024-01-06T06:10:09;3.72;;;2.72;;
30173;SDS011;16985;50.814;8.530;2024-01-06T06:12:35;7.15;;;2.90;;
30173;SDS011;16985;50.814;8.530;2024-01-06T06:15:03;8.35;;;2.60;;
30173;SDS011;16985;50.814;8.530;2024-01-06T06:17:30;4.78;;;3.00;;
30173;SDS011;16985;50.814;8.530;2024-01-06T06:19:57;4.72;;;2.40;;
30173;SDS011;16985;50.814;8.530;2024-01-06T06:22:24;8.95;;;3.88;;
30173;SDS011;16985;50.814;8.530;2024-01-06T06:24:56;6.78;;;2.80;;
30173;SDS011;16985;50.814;8.530;2024-01-06T06:27:22;8.93;;;2.50;;
30173;SDS011;16985;50.814;8.530;2024-01-06T06:29:49;5.57;;;3.03;;
30173;SDS011;16985;50.814;8.530;2024-01-06T06:32:14;5.65;;;3.40;;
30173;SDS011;16985;50.814;8.530;2024-01-06T06:34:40;4.78;;;2.42;;
30173;SDS011;16985;50.814;8.530;2024-01-06T06:37:09;6.28;;;3.65;;
30173;SDS011;16985;50.814;8.530;2024-01-06T06:39:36;8.05;;;3.63;;
30173;SDS011;16985;50.814;8.530;2024-01-06T06:42:02;7.05;;;3.72;;
30173;SDS011;16985;50.814;8.530;2024-01-06T06:44:28;9.38;;;3.65;;
30173;SDS011;16985;50.814;8.530;2024-01-06T06:46:57;8.32;;;3.22;;
30173;SDS011;16985;50.814;8.530;2024-01-06T06:49:23;7.97;;;3.55;;
30173;SDS011;16985;50.814;8.530;2024-01-06T06:51:49;7.25;;;3.47;;
30173;SDS011;16985;50.814;8.530;2024-01-06T06:54:15;10.38;;;3.50;;
30173;SDS011;16985;50.814;8.530;2024-01-06T06:56:44;6.18;;;3.20;;
30173;SDS011;16985;50.814;8.530;2024-01-06T06:59:10;10.85;;;4.32;;
30173;SDS011;16985;50.814;8.530;2024-01-06T07:01:36;6.43;;;3.42;;
30173;SDS011;16985;50.814;8.530;2024-01-06T07:04:02;8.43;;;3.35;;
30173;SDS011;16985;50.814;8.530;2024-01-06T07:06:29;7.60;;;3.30;;
30173;SDS011;16985;50.814;8.530;2024-01-06T07:08:55;7.20;;;2.92;;
30173;SDS011;16985;50.814;8.530;2024-01-06T07:11:22;6.45;;;3.33;;
30173;SDS011;16985;50.814;8.530;2024-01-06T07:13:48;4.53;;;3.10;;
30173;SDS011;16985;50.814;8.530;2024-01-06T07:16:15;7.90;;;2.92;;
30173;SDS011;16985;50.814;8.530;2024-01-06T07:18:41;5.20;;;3.35;;
30173;SDS011;16985;50.814;8.530;2024-01-06T07:21:07;4.13;;;3.17;;
30173;SDS011;16985;50.814;8.530;2024-01-06T07:23:33;4.97;;;3.00;;
30173;SDS011;16985;50.814;8.530;2024-01-06T07:25:58;6.45;;;2.88;;
30173;SDS011;16985;50.814;8.530;2024-01-06T07:28:24;5.30;;;2.90;;
30173;SDS011;16985;50.814;8.530;2024-01-06T07:30:52;7.90;;;3.47;;
30173;SDS011;16985;50.814;8.530;2024-01-06T07:33:18;6.88;;;3.38;;
30173;SDS011;16985;50.814;8.530;2024-01-06T07:35:43;6.55;;;3.28;;
30173;SDS011;16985;50.814;8.530;2024-01-06T07:38:11;6.45;;;3.47;;
30173;SDS011;16985;50.814;8.530;2024-01-06T07:40:37;5.10;;;2.80;;
30173;SDS011;16985;50.814;8.530;2024-01-06T07:43:03;6.82;;;3.53;;
30173;SDS011;16985;50.814;8.530;2024-01-06T07:45:29;7.78;;;3.75;;
30173;SDS011;16985;50.814;8.530;2024-01-06T07:47:57;4.68;;;3.35;;
30173;SDS011;16985;50.814;8.530;2024-01-06T07:50:26;4.45;;;3.30;;
30173;SDS011;16985;50.814;8.530;2024-01-06T07:52:53;6.88;;;2.67;;
30173;SDS011;16985;50.814;8.530;2024-01-06T07:55:19;5.45;;;3.63;;
30173;SDS011;16985;50.814;8.530;2024-01-06T07:57:45;6.38;;;3.33;;
30173;SDS011;16985;50.814;8.530;2024-01-06T08:00:12;8.27;;;3.80;;
30173;SDS011;16985;50.814;8.530;2024-01-06T08:02:41;11.07;;;3.92;;
30173;SDS011;16985;50.814;8.530;2024-01-06T08:05:07;6.05;;;4.43;;
30173;SDS011;16985;50.814;8.530;2024-01-06T08:07:34;8.55;;;3.83;;
30173;SDS011;16985;50.814;8.530;2024-01-06T08:10:00;9.50;;;3.67;;
30173;SDS011;16985;50.814;8.530;2024-01-06T08:12:26;8.25;;;3.50;;
30173;SDS011;16985;50.814;8.530;2024-01-06T08:14:51;8.00;;;3.58;;
30173;SDS011;16985;50.814;8.530;2024-01-06T08:17:17;9.07;;;3.60;;
30173;SDS011;16985;50.814;8.530;2024-01-06T08:19:44;17.98;;;3.92;;
30173;SDS011;16985;50.814;8.530;2024-01-06T08:22:12;11.88;;;5.22;;
30173;SDS011;16985;50.814;8.530;2024-01-06T08:24:38;20.05;;;7.97;;
30173;SDS011;16985;50.814;8.530;2024-01-06T08:27:04;26.63;;;10.10;;
30173;SDS011;16985;50.814;8.530;2024-01-06T08:29:30;23.73;;;9.85;;
30173;SDS011;16985;50.814;8.530;2024-01-06T08:31:56;19.17;;;9.60;;
30173;SDS011;16985;50.814;8.530;2024-01-06T08:34:22;17.15;;;8.25;;
30173;SDS011;16985;50.814;8.530;2024-01-06T08:36:48;15.68;;;7.55;;
30173;SDS011;16985;50.814;8.530;2024-01-06T08:39:14;15.82;;;8.18;;
30173;SDS011;16985;50.814;8.530;2024-01-06T08:41:40;15.40;;;7.97;;
30173;SDS011;16985;50.814;8.530;2024-01-06T08:44:05;14.45;;;7.53;;
30173;SDS011;16985;50.814;8.530;2024-01-06T08:46:31;10.82;;;6.57;;
30173;SDS011;16985;50.814;8.530;2024-01-06T08:48:57;16.38;;;7.10;;
30173;SDS011;16985;50.814;8.530;2024-01-06T08:51:23;15.38;;;6.13;;
30173;SDS011;16985;50.814;8.530;2024-01-06T08:53:49;13.75;;;6.05;;
30173;SDS011;16985;50.814;8.530;2024-01-06T08:56:15;12.60;;;5.72;;
30173;SDS011;16985;50.814;8.530;2024-01-06T08:58:43;11.93;;;5.93;;
30173;SDS011;16985;50.814;8.530;2024-01-06T09:01:09;10.85;;;5.57;;
30173;SDS011;16985;50.814;8.530;2024-01-06T09:03:35;14.65;;;5.03;;
30173;SDS011;16985;50.814;8.530;2024-01-06T09:06:00;9.07;;;5.40;;
30173;SDS011;16985;50.814;8.530;2024-01-06T09:08:26;10.52;;;4.85;;
30173;SDS011;16985;50.814;8.530;2024-01-06T09:10:53;10.10;;;5.25;;
30173;SDS011;16985;50.814;8.530;2024-01-06T09:13:23;8.57;;;5.05;;
30173;SDS011;16985;50.814;8.530;2024-01-06T09:15:52;12.23;;;6.90;;
30173;SDS011;16985;50.814;8.530;2024-01-06T09:18:18;8.05;;;5.63;;
30173;SDS011;16985;50.814;8.530;2024-01-06T09:20:44;9.07;;;5.03;;
30173;SDS011;16985;50.814;8.530;2024-01-06T09:23:12;9.65;;;5.53;;
30173;SDS011;16985;50.814;8.530;2024-01-06T09:25:38;9.82;;;5.30;;
30173;SDS011;16985;50.814;8.530;2024-01-06T09:30:33;9.52;;;6.03;;
30173;SDS011;16985;50.814;8.530;2024-01-06T09:32:59;10.25;;;5.72;;
30173;SDS011;16985;50.814;8.530;2024-01-06T09:35:24;12.73;;;6.25;;
30173;SDS011;16985;50.814;8.530;2024-01-06T09:37:50;7.47;;;5.13;;
30173;SDS011;16985;50.814;8.530;2024-01-06T09:40:20;9.20;;;5.82;;
30173;SDS011;16985;50.814;8.530;2024-01-06T09:42:51;9.77;;;5.47;;
30173;SDS011;16985;50.814;8.530;2024-01-06T09:45:20;8.32;;;5.13;;
30173;SDS011;16985;50.814;8.530;2024-01-06T09:47:48;7.65;;;5.80;;
30173;SDS011;16985;50.814;8.530;2024-01-06T09:50:19;7.15;;;5.50;;
30173;SDS011;16985;50.814;8.530;2024-01-06T09:52:46;14.25;;;5.38;;
30173;SDS011;16985;50.814;8.530;2024-01-06T09:55:28;7.00;;;5.28;;
30173;SDS011;16985;50.814;8.530;2024-01-06T09:57:54;6.82;;;4.75;;
30173;SDS011;16985;50.814;8.530;2024-01-06T10:00:20;8.23;;;4.90;;
30173;SDS011;16985;50.814;8.530;2024-01-06T10:02:47;8.95;;;4.78;;
30173;SDS011;16985;50.814;8.530;2024-01-06T10:05:15;9.35;;;4.97;;
30173;SDS011;16985;50.814;8.530;2024-01-06T10:07:42;9.48;;;5.15;;
30173;SDS011;16985;50.814;8.530;2024-01-06T10:10:12;9.30;;;5.32;;
30173;SDS011;16985;50.814;8.530;2024-01-06T10:12:39;6.95;;;5.10;;
30173;SDS011;16985;50.814;8.530;2024-01-06T10:15:10;9.05;;;5.25;;
30173;SDS011;16985;50.814;8.530;2024-01-06T10:17:37;7.30;;;5.13;;
30173;SDS011;16985;50.814;8.530;2024-01-06T10:20:11;10.05;;;4.68;;
30173;SDS011;16985;50.814;8.530;2024-01-06T10:22:38;10.73;;;5.50;;
30173;SDS011;16985;50.814;8.530;2024-01-06T10:25:07;10.88;;;4.75;;
30173;SDS011;16985;50.814;8.530;2024-01-06T10:27:38;8.35;;;5.05;;
30173;SDS011;16985;50.814;8.530;2024-01-06T10:30:07;8.57;;;4.90;;
30173;SDS011;16985;50.814;8.530;2024-01-06T10:32:34;5.28;;;4.32;;
30173;SDS011;16985;50.814;8.530;2024-01-06T10:35:01;7.10;;;4.60;;
30173;SDS011;16985;50.814;8.530;2024-01-06T10:37:29;7.70;;;4.90;;
30173;SDS011;16985;50.814;8.530;2024-01-06T10:40:14;10.75;;;5.47;;
30173;SDS011;16985;50.814;8.530;2024-01-06T10:42:42;6.95;;;4.47;;
30173;SDS011;16985;50.814;8.530;2024-01-06T10:45:09;8.40;;;4.88;;
30173;SDS011;16985;50.814;8.530;2024-01-06T10:47:37;6.95;;;4.82;;
30173;SDS011;16985;50.814;8.530;2024-01-06T10:50:08;8.20;;;5.57;;
30173;SDS011;16985;50.814;8.530;2024-01-06T10:52:34;11.10;;;5.07;;
30173;SDS011;16985;50.814;8.530;2024-01-06T10:55:02;11.55;;;6.30;;
30173;SDS011;16985;50.814;8.530;2024-01-06T10:57:30;7.72;;;5.50;;
30173;SDS011;16985;50.814;8.530;2024-01-06T10:59:57;8.88;;;5.80;;
30173;SDS011;16985;50.814;8.530;2024-01-06T11:02:24;8.27;;;5.65;;
30173;SDS011;16985;50.814;8.530;2024-01-06T11:04:51;6.07;;;4.97;;
30173;SDS011;16985;50.814;8.530;2024-01-06T11:07:21;6.63;;;5.32;;
30173;SDS011;16985;50.814;8.530;2024-01-06T11:09:57;6.35;;;4.70;;
30173;SDS011;16985;50.814;8.530;2024-01-06T11:12:30;7.68;;;5.07;;
30173;SDS011;16985;50.814;8.530;2024-01-06T11:14:57;8.38;;;5.10;;
30173;SDS011;16985;50.814;8.530;2024-01-06T11:20:19;5.30;;;4.40;;
30173;SDS011;16985;50.814;8.530;2024-01-06T11:22:49;6.60;;;4.80;;
30173;SDS011;16985;50.814;8.530;2024-01-06T11:25:17;7.77;;;4.47;;
30173;SDS011;16985;50.814;8.530;2024-01-06T11:27:45;4.95;;;4.10;;
30173;SDS011;16985;50.814;8.530;2024-01-06T11:30:25;8.63;;;4.28;;
30173;SDS011;16985;50.814;8.530;2024-01-06T11:35:25;4.22;;;3.30;;
30173;SDS011;16985;50.814;8.530;2024-01-06T11:37:53;5.22;;;3.47;;
30173;SDS011;16985;50.814;8.530;2024-01-06T11:45:30;5.70;;;3.00;;
30173;SDS011;16985;50.814;8.530;2024-01-06T11:47:58;6.25;;;3.30;;
30173;SDS011;16985;50.814;8.530;2024-01-06T11:50:30;5.32;;;3.60;;
30173;SDS011;16985;50.814;8.530;2024-01-06T11:52:58;7.20;;;4.47;;
30173;SDS011;16985;50.814;8.530;2024-01-06T11:55:25;7.45;;;4.35;;
30173;SDS011;16985;50.814;8.530;2024-01-06T11:57:56;5.32;;;4.15;;
30173;SDS011;16985;50.814;8.530;2024-01-06T12:00:34;8.38;;;5.32;;
30173;SDS011;16985;50.814;8.530;2024-01-06T12:03:04;6.88;;;5.30;;
30173;SDS011;16985;50.814;8.530;2024-01-06T12:05:30;6.75;;;4.93;;
30173;SDS011;16985;50.814;8.530;2024-01-06T12:07:57;8.93;;;5.43;;
30173;SDS011;16985;50.814;8.530;2024-01-06T12:10:26;5.93;;;5.03;;
30173;SDS011;16985;50.814;8.530;2024-01-06T12:15:29;9.63;;;5.38;;
30173;SDS011;16985;50.814;8.530;2024-01-06T12:17:57;6.93;;;4.60;;
30173;SDS011;16985;50.814;8.530;2024-01-06T12:20:28;7.78;;;5.22;;
30173;SDS011;16985;50.814;8.530;2024-01-06T12:22:54;11.43;;;6.35;;
30173;SDS011;16985;50.814;8.530;2024-01-06T12:25:21;10.20;;;5.50;;
30173;SDS011;16985;50.814;8.530;2024-01-06T12:27:48;8.30;;;5.38;;
30173;SDS011;16985;50.814;8.530;2024-01-06T12:30:15;12.27;;;6.95;;
30173;SDS011;16985;50.814;8.530;2024-01-06T12:32:47;15.57;;;7.80;;
30173;SDS011;16985;50.814;8.530;2024-01-06T12:35:14;11.25;;;7.32;;
30173;SDS011;16985;50.814;8.530;2024-01-06T12:37:41;11.07;;;6.72;;
30173;SDS011;16985;50.814;8.530;2024-01-06T12:40:08;9.40;;;6.47;;
30173;SDS011;16985;50.814;8.530;2024-01-06T12:42:35;12.38;;;8.10;;
30173;SDS011;16985;50.814;8.530;2024-01-06T12:45:02;11.15;;;7.68;;
30173;SDS011;16985;50.814;8.530;2024-01-06T12:47:28;13.18;;;7.65;;
30173;SDS011;16985;50.814;8.530;2024-01-06T12:49:54;13.73;;;7.90;;
30173;SDS011;16985;50.814;8.530;2024-01-06T12:52:20;13.68;;;9.05;;
30173;SDS011;16985;50.814;8.530;2024-01-06T12:54:45;12.68;;;7.75;;
30173;SDS011;16985;50.814;8.530;2024-01-06T12:57:11;13.75;;;8.52;;
30173;SDS011;16985;50.814;8.530;2024-01-06T12:59:37;15.95;;;8.90;;
30173;SDS011;16985;50.814;8.530;2024-01-06T13:02:03;12.05;;;8.32;;
30173;SDS011;16985;50.814;8.530;2024-01-06T13:04:29;13.55;;;8.43;;
30173;SDS011;16985;50.814;8.530;2024-01-06T13:06:55;12.77;;;8.07;;
30173;SDS011;16985;50.814;8.530;2024-01-06T13:09:21;14.07;;;8.15;;
30173;SDS011;16985;50.814;8.530;2024-01-06T13:11:48;15.30;;;8.70;;
30173;SDS011;16985;50.814;8.530;2024-01-06T13:14:16;15.07;;;8.77;;
30173;SDS011;16985;50.814;8.530;2024-01-06T13:16:43;11.50;;;8.20;;
30173;SDS011;16985;50.814;8.530;2024-01-06T13:19:09;14.57;;;8.95;;
30173;SDS011;16985;50.814;8.530;2024-01-06T13:21:35;13.65;;;8.25;;
30173;SDS011;16985;50.814;8.530;2024-01-06T13:24:04;13.48;;;7.95;;
30173;SDS011;16985;50.814;8.530;2024-01-06T13:26:31;13.27;;;8.40;;
30173;SDS011;16985;50.814;8.530;2024-01-06T13:28:57;16.67;;;9.07;;
30173;SDS011;16985;50.814;8.530;2024-01-06T13:31:23;11.88;;;7.88;;
30173;SDS011;16985;50.814;8.530;2024-01-06T13:33:49;13.23;;;8.93;;
30173;SDS011;16985;50.814;8.530;2024-01-06T13:36:17;14.25;;;8.45;;
30173;SDS011;16985;50.814;8.530;2024-01-06T13:38:45;11.25;;;7.72;;
30173;SDS011;16985;50.814;8.530;2024-01-06T13:41:11;12.57;;;8.85;;
30173;SDS011;16985;50.814;8.530;2024-01-06T13:43:37;11.57;;;8.13;;
30173;SDS011;16985;50.814;8.530;2024-01-06T13:46:03;14.30;;;8.65;;
30173;SDS011;16985;50.814;8.530;2024-01-06T13:48:28;12.80;;;9.13;;
30173;SDS011;16985;50.814;8.530;2024-01-06T13:50:54;13.55;;;9.23;;
30173;SDS011;16985;50.814;8.530;2024-01-06T13:53:21;15.10;;;9.95;;
30173;SDS011;16985;50.814;8.530;2024-01-06T13:55:47;13.50;;;9.25;;
30173;SDS011;16985;50.814;8.530;2024-01-06T13:58:13;11.10;;;8.25;;
30173;SDS011;16985;50.814;8.530;2024-01-06T14:00:39;11.57;;;8.18;;
30173;SDS011;16985;50.814;8.530;2024-01-06T14:03:05;12.10;;;8.15;;
30173;SDS011;16985;50.814;8.530;2024-01-06T14:05:32;12.25;;;8.30;;
30173;SDS011;16985;50.814;8.530;2024-01-06T14:07:58;11.48;;;8.05;;
30173;SDS011;16985;50.814;8.530;2024-01-06T14:10:24;15.98;;;9.00;;
30173;SDS011;16985;50.814;8.530;2024-01-06T14:12:50;12.73;;;8.57;;
30173;SDS011;16985;50.814;8.530;2024-01-06T14:15:15;13.77;;;8.32;;
30173;SDS011;16985;50.814;8.530;2024-01-06T14:17:41;12.00;;;7.65;;
30173;SDS011;16985;50.814;8.530;2024-01-06T14:20:08;15.40;;;7.28;;
30173;SDS011;16985;50.814;8.530;2024-01-06T14:22:37;9.38;;;6.78;;
30173;SDS011;16985;50.814;8.530;2024-01-06T14:25:04;11.77;;;7.32;;
30173;SDS011;16985;50.814;8.530;2024-01-06T14:27:31;10.82;;;7.45;;
30173;SDS011;16985;50.814;8.530;2024-01-06T14:29:57;11.82;;;7.95;;
30173;SDS011;16985;50.814;8.530;2024-01-06T14:32:23;12.77;;;7.20;;
30173;SDS011;16985;50.814;8.530;2024-01-06T14:34:49;11.60;;;7.40;;
30173;SDS011;16985;50.814;8.530;2024-01-06T14:37:16;11.25;;;7.22;;
30173;SDS011;16985;50.814;8.530;2024-01-06T14:39:42;11.10;;;6.90;;
30173;SDS011;16985;50.814;8.530;2024-01-06T14:42:08;9.68;;;6.00;;
30173;SDS011;16985;50.814;8.530;2024-01-06T14:44:34;10.35;;;6.53;;
30173;SDS011;16985;50.814;8.530;2024-01-06T14:47:01;8.43;;;5.75;;
30173;SDS011;16985;50.814;8.530;2024-01-06T14:49:26;10.55;;;6.07;;
30173;SDS011;16985;50.814;8.530;2024-01-06T14:51:52;8.35;;;5.97;;
30173;SDS011;16985;50.814;8.530;2024-01-06T14:54:18;6.38;;;5.05;;
30173;SDS011;16985;50.814;8.530;2024-01-06T14:56:44;7.22;;;5.47;;